Flight Track Log - Related Links

Times and Time Zones

All times are in EDT time to prevent confusion due to time zone crossing. See the RAX81 flight status page for this flight to view local times or setup timezone preferences in your user account.

Time Position Orientation Groundspeed Altitude Reporting Facility
EDT Latitude Longitude Course Direction KTS MPH feet Rate Location/Type
Thu 06:25:30 AM 40.8833 -74.0500 339° North 142 163 1,800  Level New York TRACON
Thu 06:26:30 AM 40.9167 -74.0667 339° North 140 161 3,400 1,450 Climbing New York TRACON
Thu 06:27:30 AM 40.9500 -74.1167 311° West 160 184 4,700 1,300 Climbing New York TRACON
Thu 06:28:30 AM 40.9833 -74.1500 323° Northwest 162 186 6,000 650 Climbing New York TRACON
Thu 06:29:30 AM 41.0500 -74.1500 360° North 229 264 6,000 600 Level New York TRACON
Thu 06:30:30 AM 41.1000 -74.1167 27° Northeast 217 250 7,200 1,250 Climbing New York TRACON
Thu 06:31:30 AM 41.1167 -74.0500 72° East 184 212 8,500 1,200 Climbing New York TRACON
Thu 06:32:30 AM 41.1333 -74.0000 66° East 189 217 9,600 1,100 Climbing New York TRACON
Thu 06:33:30 AM 41.1667 -73.9333 56° Northeast 195 224 10,700 1,018 Climbing New York TRACON
Thu 06:35:15 AM 41.1978 -73.8250 69° East 212 244 12,400 909 Climbing Boston Center
Thu 06:36:15 AM 41.2150 -73.7700 67° East 205 236 13,200 950 Climbing Boston Center
Thu 06:37:15 AM 41.2367 -73.6933 69° East 187 215 14,300 900 Climbing Boston Center
Thu 06:38:15 AM 41.2542 -73.6164 73° East 187 215 15,000 350 Climbing Boston Center
Thu 06:39:15 AM 41.2653 -73.5503 77° East 200 230 15,000  Level Boston Center
Thu 06:40:15 AM 41.2831 -73.4567 76° East 223 257 15,000  Level Boston Center
Thu 06:41:15 AM 41.2961 -73.3794 77° East 229 264 15,000  Level Boston Center
Thu 06:42:15 AM 41.3136 -73.2858 76° East 235 270 15,000  Level Boston Center
Thu 06:43:15 AM 41.3308 -73.2003 75° East 240 276 15,000  Level Boston Center
Thu 06:44:15 AM 41.3481 -73.1147 75° East 240 276 15,000  Level Boston Center
Thu 06:45:15 AM 41.3631 -73.0431 74° East 240 276 15,000 50 Level Boston Center
Thu 06:46:15 AM 41.3822 -72.9408 76° East 240 276 15,100 50 Climbing Boston Center
Thu 06:47:15 AM 41.3950 -72.8636 78° East 240 276 15,100  Level Boston Center
Thu 06:48:15 AM 41.4161 -72.7667 74° East 240 276 15,100  Level Boston Center
Thu 06:49:15 AM 41.4311 -72.6892 76° East 240 276 15,100 -50 Level Boston Center
Thu 06:50:15 AM 41.4458 -72.5953 78° East 240 276 15,000 -50 Descending Boston Center
Thu 06:51:15 AM 41.4689 -72.5206 68° East 240 276 15,000 -55 Level Boston Center
Thu 06:52:05 AM 41.4958 -72.4428 65° Northeast 244 281 14,900 -718 Descending Boston Center
Thu 06:53:12 AM 41.5314 -72.3431 65° Northeast 272 313 13,600 -850 Descending Boston Center
Thu 06:54:12 AM 41.5603 -72.2514 67° East 272 313 13,100 -595 Descending Boston Center
Thu 06:55:13 AM 41.5956 -72.1569 63° Northeast 266 306 12,400 -639 Descending Boston Center
Thu 06:56:14 AM 41.6244 -72.0653 67° East 262 302 11,800 -595 Descending Boston Center
Thu 06:57:14 AM 41.6514 -71.9789 67° East 260 299 11,200 -645 Descending Boston Center
Thu 06:58:15 AM 41.6781 -71.8869 69° East 260 299 10,500 -645 Descending Boston Center
Thu 06:59:15 AM 41.7025 -71.8006 69° East 252 290 9,900 -600 Descending Boston Center
Thu 06:59:15 AM 41.7025 -71.8006 69° East 253 291 9,900 -700 Level Boston Center
Thu 07:00:15 AM 41.7542 -71.7417 40° Northeast 252 290 9,200 -1,000 Descending Boston Center
Thu 07:01:15 AM 41.8183 -71.6742 38° Northeast 259 298 7,900 -1,050 Descending Boston Center
Thu 07:02:15 AM 41.8722 -71.6064 43° Northeast 265 305 7,100 -700 Descending Boston Center
Thu 07:03:15 AM 41.9236 -71.5389 44° Northeast 260 299 6,500 -750 Descending Boston Center
Thu 07:04:15 AM 41.9358 -71.4800 74° East 240 276 5,600 -1,100 Descending Boston Center
Thu 07:05:15 AM 41.9536 -71.3681 78° East 234 269 4,300 -800 Descending Boston Center
Thu 07:06:15 AM 41.9614 -71.3122 79° East 234 269 4,000 -150 Descending Boston Center
Thu 07:07:15 AM 42.0000 -71.2164 62° Northeast 218 251 4,000  Level Boston Center
Thu 07:08:15 AM 42.0450 -71.1569 44° Northeast 218 251 4,000  Level Boston Center
Thu 07:09:15 AM 42.1031 -71.1306 19° North 218 251 4,000 -353 Level Boston Center
Thu 07:10:14 AM 42.1667 -71.1000 20° North 235 270 3,300 -632 Descending KA90
Thu 07:11:09 AM 42.2167 -71.0833 14° North 187 215 2,800 -667 Descending KA90
Thu 07:12:20 AM 42.2667 -71.0500 26° Northeast 181 208 1,900 -807 Descending KA90
Thu 07:13:08 AM 42.3000 -71.0333 20° North 147 169 1,200 -778 Descending KA90
Thu 07:14:08 AM 42.3333 -71.0167 20° North 132 152 500 -700 Descending KA90

Login

Don't have an account? Register now (free) for customized features, flight alerts, and more!